Time;durP1;ratioP1;P1;durP2;ratioP2;P2;SDS_P1;SDS_P2;PMS_P1;PMS_P2;Temp;Humidity;BMP_temperature;BMP_pressure;BME280_temperature;BME280_humidity;BME280_pressure;Samples;Min_cycle;Max_cycle;Signal;HPM_P1;HPM_P2
2022/08/12 00:44:37;;;;;;;17.95;12.77;;;;;;;;;;5027455;28;20033;-76
2022/08/12 00:47:02;;;;;;;10.88;9.48;;;;;;;;;;5025860;28;20040;-75
2022/08/12 00:49:29;;;;;;;23.05;15.35;;;;;;;;;;5027757;28;20033;-74
2022/08/12 00:52:05;;;;;;;12.23;10.38;;;;;;;;;;5025174;28;20461;-74
2022/08/12 00:54:35;;;;;;;13.70;9.30;;;;;;;;;;5026226;28;20068;-74
2022/08/12 00:57:03;;;;;;;10.10;8.48;;;;;;;;;;5025988;28;20433;-75
2022/08/12 00:59:29;;;;;;;15.30;11.23;;;;;;;;;;5024780;28;20341;-73
2022/08/12 01:01:55;;;;;;;9.60;7.95;;;;;;;;;;5024932;28;20025;-74
2022/08/12 01:12:37;;;;;;;15.70;10.98;;;;;;;;;;5024465;28;20083;-73
2022/08/12 01:15:03;;;;;;;13.13;10.45;;;;;;;;;;5025498;28;20034;-74
2022/08/12 01:17:29;;;;;;;11.00;9.80;;;;;;;;;;5023999;28;20087;-74
2022/08/12 01:19:55;;;;;;;8.68;7.60;;;;;;;;;;5026990;28;20025;-75
2022/08/12 01:22:25;;;;;;;8.57;7.80;;;;;;;;;;5025108;28;20029;-75
2022/08/12 01:25:08;;;;;;;8.77;7.88;;;;;;;;;;5024374;28;20039;-75
2022/08/12 01:27:37;;;;;;;11.05;7.88;;;;;;;;;;5023988;28;20760;-74
2022/08/12 01:30:04;;;;;;;15.27;7.78;;;;;;;;;;5027073;28;20035;-74
2022/08/12 01:32:33;;;;;;;8.80;7.90;;;;;;;;;;5023873;28;20942;-75
2022/08/12 01:35:00;;;;;;;9.55;7.28;;;;;;;;;;5024185;28;20029;-74
2022/08/12 01:37:26;;;;;;;8.52;7.72;;;;;;;;;;5024871;28;20026;-75
2022/08/12 01:39:56;;;;;;;8.57;7.45;;;;;;;;;;5025311;28;20040;-73
2022/08/12 01:42:21;;;;;;;22.27;13.02;;;;;;;;;;5025654;28;20048;-74
2022/08/12 01:44:52;;;;;;;30.67;17.88;;;;;;;;;;5022707;28;20017;-73
2022/08/12 01:47:24;;;;;;;28.70;16.98;;;;;;;;;;5023733;28;20523;-73
2022/08/12 01:49:59;;;;;;;18.48;12.30;;;;;;;;;;5023436;28;20037;-72
2022/08/12 01:52:36;;;;;;;14.88;9.98;;;;;;;;;;5025165;28;20429;-74
2022/08/12 01:55:05;;;;;;;12.23;8.95;;;;;;;;;;5025268;28;20126;-75
2022/08/12 01:57:38;;;;;;;8.68;7.88;;;;;;;;;;5024646;28;20029;-73
2022/08/12 02:00:11;;;;;;;9.90;7.95;;;;;;;;;;5023044;28;20444;-73
2022/08/12 02:02:56;;;;;;;17.80;11.07;;;;;;;;;;5024186;28;20458;-73
2022/08/12 02:11:22;;;;;;;11.05;10.05;;;;;;;;;;5026404;28;20041;-74
2022/08/12 02:13:56;;;;;;;10.27;8.73;;;;;;;;;;5022456;28;20029;-74
2022/08/12 02:16:29;;;;;;;10.20;9.18;;;;;;;;;;5023934;28;20127;-74
2022/08/12 02:18:54;;;;;;;11.43;9.80;;;;;;;;;;5023624;28;20348;-74
2022/08/12 02:21:38;;;;;;;10.13;9.05;;;;;;;;;;5025904;28;20028;-74
2022/08/12 02:24:05;;;;;;;10.20;8.30;;;;;;;;;;5025564;28;20041;-75
2022/08/12 02:26:32;;;;;;;8.43;7.60;;;;;;;;;;5023899;28;20021;-75
2022/08/12 02:28:58;;;;;;;9.15;6.53;;;;;;;;;;5021956;28;20074;-75
2022/08/12 02:31:25;;;;;;;12.65;7.22;;;;;;;;;;5023247;28;20033;-75
2022/08/12 02:33:51;;;;;;;8.77;7.88;;;;;;;;;;5023513;28;20032;-74
2022/08/12 02:36:17;;;;;;;11.73;7.70;;;;;;;;;;5024233;28;20022;-73
2022/08/12 02:38:43;;;;;;;7.63;6.95;;;;;;;;;;5023234;28;20112;-74
2022/08/12 02:41:10;;;;;;;13.10;8.88;;;;;;;;;;5023367;28;20136;-75
2022/08/12 02:43:36;;;;;;;17.92;10.35;;;;;;;;;;5024990;28;20112;-76
2022/08/12 02:46:05;;;;;;;15.15;10.48;;;;;;;;;;5023300;28;20127;-74
2022/08/12 02:48:44;;;;;;;11.73;9.45;;;;;;;;;;5023410;28;20052;-77
2022/08/12 02:51:11;;;;;;;16.88;9.23;;;;;;;;;;5007251;28;20045;-73
2022/08/12 02:53:37;;;;;;;9.25;7.90;;;;;;;;;;5006291;28;20034;-74
2022/08/12 02:56:03;;;;;;;9.25;8.30;;;;;;;;;;5023928;28;20075;-76
2022/08/12 02:58:34;;;;;;;10.02;7.90;;;;;;;;;;5023153;28;20428;-76
2022/08/12 03:01:00;;;;;;;12.07;7.63;;;;;;;;;;5024652;28;20038;-75
2022/08/12 03:03:28;;;;;;;8.75;8.05;;;;;;;;;;5023909;28;20083;-74
2022/08/12 03:05:58;;;;;;;9.35;8.43;;;;;;;;;;5022777;28;20036;-74
2022/08/12 03:08:28;;;;;;;12.27;9.18;;;;;;;;;;5022882;28;20026;-74
2022/08/12 03:10:55;;;;;;;49.80;21.20;;;;;;;;;;5022586;28;20393;-73
2022/08/12 03:13:24;;;;;;;35.33;15.73;;;;;;;;;;5024296;28;20057;-74
2022/08/12 03:15:50;;;;;;;;;;;;;;;;;;5023128;28;20031;-74
2022/08/12 03:18:21;;;;;;;12.87;9.50;;;;;;;;;;5022899;28;19926;-75
2022/08/12 03:20:47;;;;;;;18.40;10.25;;;;;;;;;;5023178;28;21033;-73
2022/08/12 03:23:14;;;;;;;12.55;8.20;;;;;;;;;;5023873;28;20506;-73
2022/08/12 03:25:40;;;;;;;18.98;11.00;;;;;;;;;;5022798;28;20025;-73
2022/08/12 03:28:08;;;;;;;11.82;9.00;;;;;;;;;;5021140;28;20026;-73
2022/08/12 03:30:33;;;;;;;9.57;7.25;;;;;;;;;;5022981;28;20037;-74
2022/08/12 03:33:02;;;;;;;9.52;7.13;;;;;;;;;;5020892;28;20334;-73
2022/08/12 03:35:31;;;;;;;8.52;7.10;;;;;;;;;;5021407;28;20033;-75
2022/08/12 03:38:05;;;;;;;11.18;6.55;;;;;;;;;;5021247;28;20041;-74
2022/08/12 04:02:39;;;;;;;8.40;7.60;;;;;;;;;;5024641;28;20036;-74
2022/08/12 04:05:06;;;;;;;9.38;7.85;;;;;;;;;;5023614;28;20510;-73
2022/08/12 04:07:33;;;;;;;11.30;8.02;;;;;;;;;;5020351;28;20029;-74
2022/08/12 04:09:58;;;;;;;13.13;8.35;;;;;;;;;;5021993;28;20060;-74
2022/08/12 04:15:11;;;;;;;9.40;7.80;;;;;;;;;;5021717;28;20048;-73
2022/08/12 04:17:39;;;;;;;10.57;8.98;;;;;;;;;;5022909;28;20064;-74
2022/08/12 04:20:06;;;;;;;10.02;8.55;;;;;;;;;;5024823;28;20029;-73
2022/08/12 04:22:32;;;;;;;9.55;8.65;;;;;;;;;;5021304;28;20420;-72
2022/08/12 04:25:00;;;;;;;8.82;7.93;;;;;;;;;;5023581;28;20025;-74
2022/08/12 04:27:28;;;;;;;8.80;8.03;;;;;;;;;;5021047;28;20463;-72
2022/08/12 04:29:53;;;;;;;9.23;8.32;;;;;;;;;;5020387;28;20026;-72
2022/08/12 04:32:18;;;;;;;9.15;8.23;;;;;;;;;;5021202;28;20029;-72
2022/08/12 04:34:44;;;;;;;8.65;7.88;;;;;;;;;;5023624;28;20025;-73
2022/08/12 04:37:11;;;;;;;10.02;8.60;;;;;;;;;;5023059;28;20029;-72
2022/08/12 04:39:38;;;;;;;9.25;8.35;;;;;;;;;;5020402;28;20059;-73
2022/08/12 04:42:03;;;;;;;10.10;9.07;;;;;;;;;;5022528;28;20065;-75
2022/08/12 04:44:30;;;;;;;11.23;9.30;;;;;;;;;;5022625;28;20032;-73
2022/08/12 04:46:55;;;;;;;12.98;9.82;;;;;;;;;;5020901;28;20060;-74
2022/08/12 04:49:23;;;;;;;10.75;9.50;;;;;;;;;;5022023;28;20067;-72
2022/08/12 04:51:48;;;;;;;12.60;9.43;;;;;;;;;;5024497;28;20026;-72
2022/08/12 04:54:13;;;;;;;9.90;8.93;;;;;;;;;;5024693;28;20102;-72
2022/08/12 04:56:39;;;;;;;10.20;9.18;;;;;;;;;;5024696;28;20036;-72
2022/08/12 04:59:05;;;;;;;9.02;8.23;;;;;;;;;;5025272;28;20025;-72
2022/08/12 05:01:31;;;;;;;10.10;8.27;;;;;;;;;;5024716;28;20018;-74
2022/08/12 05:03:57;;;;;;;8.63;7.88;;;;;;;;;;5024519;28;20026;-72
2022/08/12 05:06:23;;;;;;;10.68;9.25;;;;;;;;;;5026943;28;20025;-74
2022/08/12 05:08:48;;;;;;;10.27;9.27;;;;;;;;;;5025439;28;20033;-72
2022/08/12 05:11:14;;;;;;;9.30;8.23;;;;;;;;;;5024157;28;20348;-73
2022/08/12 05:13:39;;;;;;;9.35;8.23;;;;;;;;;;5025630;28;20352;-72
2022/08/12 05:16:06;;;;;;;9.57;8.27;;;;;;;;;;5025821;28;20075;-74
2022/08/12 05:18:40;;;;;;;9.30;8.45;;;;;;;;;;5023182;28;20063;-74
2022/08/12 05:21:07;;;;;;;9.48;8.57;;;;;;;;;;5023767;28;20029;-72
2022/08/12 05:23:34;;;;;;;10.57;8.85;;;;;;;;;;5022695;28;20030;-76
2022/08/12 05:26:00;;;;;;;13.40;10.23;;;;;;;;;;5023593;28;20025;-72
2022/08/12 05:28:26;;;;;;;11.10;9.60;;;;;;;;;;5024645;28;20372;-72
2022/08/12 05:30:51;;;;;;;10.40;9.32;;;;;;;;;;5025375;28;20089;-74
2022/08/12 05:33:17;;;;;;;13.15;9.88;;;;;;;;;;5022867;28;20021;-74
2022/08/12 05:35:44;;;;;;;11.98;10.88;;;;;;;;;;5024374;28;20030;-72
2022/08/12 05:40:55;;;;;;;11.88;10.57;;;;;;;;;;5024817;28;20056;-72
2022/08/12 05:43:20;;;;;;;10.63;9.65;;;;;;;;;;5024257;28;20403;-76
2022/08/12 05:45:46;;;;;;;11.05;9.95;;;;;;;;;;5024371;28;20037;-72
2022/08/12 05:48:12;;;;;;;11.52;9.90;;;;;;;;;;5025262;28;20029;-73
2022/08/12 05:50:37;;;;;;;15.30;13.70;;;;;;;;;;5022936;28;20033;-75
2022/08/12 05:53:02;;;;;;;27.33;20.55;;;;;;;;;;5021566;28;20108;-72
2022/08/12 05:55:28;;;;;;;24.95;21.63;;;;;;;;;;5024501;28;20104;-72
2022/08/12 05:57:54;;;;;;;35.47;31.98;;;;;;;;;;5024110;28;20033;-72
2022/08/12 06:00:21;;;;;;;26.38;23.88;;;;;;;;;;5023574;28;20444;-73
2022/08/12 06:02:46;;;;;;;28.58;25.77;;;;;;;;;;5022955;28;20037;-73
2022/08/12 06:05:12;;;;;;;25.70;23.30;;;;;;;;;;5023021;28;20022;-73
2022/08/12 06:07:44;;;;;;;19.30;17.30;;;;;;;;;;5023652;28;20029;-72
2022/08/12 06:10:09;;;;;;;14.15;12.75;;;;;;;;;;5023935;28;20108;-73
2022/08/12 06:12:34;;;;;;;12.73;11.38;;;;;;;;;;5023352;28;20108;-73
2022/08/12 06:15:01;;;;;;;10.32;9.43;;;;;;;;;;5023333;28;20068;-73
2022/08/12 06:17:29;;;;;;;9.75;8.85;;;;;;;;;;5022963;28;20409;-72
2022/08/12 06:19:56;;;;;;;14.93;9.88;;;;;;;;;;5021802;28;20095;-73
2022/08/12 06:22:21;;;;;;;10.25;9.35;;;;;;;;;;5026206;28;20028;-74
2022/08/12 06:24:48;;;;;;;9.48;8.65;;;;;;;;;;5022751;28;20033;-73
2022/08/12 06:27:16;;;;;;;10.38;9.48;;;;;;;;;;5025806;28;20133;-73
2022/08/12 06:29:41;;;;;;;10.05;9.13;;;;;;;;;;5022284;28;20039;-72
2022/08/12 06:32:07;;;;;;;9.65;8.65;;;;;;;;;;5024955;28;20025;-76
2022/08/12 06:34:33;;;;;;;13.02;9.68;;;;;;;;;;5022607;28;20056;-72
2022/08/12 06:36:58;;;;;;;11.52;8.63;;;;;;;;;;5027064;28;20033;-74
2022/08/12 06:39:24;;;;;;;9.63;8.70;;;;;;;;;;5023097;28;20025;-72
2022/08/12 06:44:33;;;;;;;9.07;8.25;;;;;;;;;;5022031;28;20103;-73
2022/08/12 06:46:58;;;;;;;8.30;7.65;;;;;;;;;;5024181;28;20026;-73
2022/08/12 06:49:24;;;;;;;9.88;8.93;;;;;;;;;;5024906;28;20044;-76
2022/08/12 06:51:49;;;;;;;11.25;8.23;;;;;;;;;;5024146;28;20016;-76
2022/08/12 06:54:15;;;;;;;12.07;8.38;;;;;;;;;;5022251;28;20025;-74
2022/08/12 06:56:41;;;;;;;8.93;8.02;;;;;;;;;;5023360;28;20021;-73
2022/08/12 06:59:06;;;;;;;9.82;9.02;;;;;;;;;;5023081;28;20661;-72
2022/08/12 07:01:31;;;;;;;9.27;8.38;;;;;;;;;;5022566;28;20110;-72
2022/08/12 07:03:57;;;;;;;11.25;10.02;;;;;;;;;;5005875;28;20068;-72
2022/08/12 07:06:24;;;;;;;10.52;9.65;;;;;;;;;;5005409;28;20041;-73
2022/08/12 07:08:49;;;;;;;10.35;9.35;;;;;;;;;;5023928;28;20411;-75
2022/08/12 07:11:15;;;;;;;9.52;8.63;;;;;;;;;;5026949;28;20037;-76
2022/08/12 07:13:42;;;;;;;9.25;8.43;;;;;;;;;;5021970;28;20117;-73
2022/08/12 07:16:08;;;;;;;10.40;9.13;;;;;;;;;;5023402;28;20417;-72
2022/08/12 07:18:34;;;;;;;10.35;9.43;;;;;;;;;;5022416;28;20044;-76
2022/08/12 07:21:01;;;;;;;9.50;8.52;;;;;;;;;;5021159;28;20429;-74
2022/08/12 07:23:27;;;;;;;9.05;8.25;;;;;;;;;;5023269;28;20025;-73
2022/08/12 07:25:53;;;;;;;9.40;8.57;;;;;;;;;;5023057;28;20920;-72
2022/08/12 07:28:23;;;;;;;8.77;8.00;;;;;;;;;;5023577;28;20033;-72
2022/08/12 07:30:49;;;;;;;9.57;8.77;;;;;;;;;;5023640;28;20969;-71
2022/08/12 07:33:15;;;;;;;10.75;9.65;;;;;;;;;;5020678;28;20022;-75
2022/08/12 07:35:44;;;;;;;9.82;8.80;;;;;;;;;;5023650;28;20709;-74
2022/08/12 07:38:23;;;;;;;9.30;8.35;;;;;;;;;;5021328;28;20364;-72
2022/08/12 07:40:49;;;;;;;10.60;8.48;;;;;;;;;;5016260;28;20053;-73
2022/08/12 07:43:14;;;;;;;11.07;9.95;;;;;;;;;;5021141;28;20044;-73
2022/08/12 07:45:40;;;;;;;9.60;8.73;;;;;;;;;;5024397;28;20372;-72
2022/08/12 07:48:05;;;;;;;10.18;9.27;;;;;;;;;;5022141;28;20052;-72
2022/08/12 07:50:31;;;;;;;10.43;9.43;;;;;;;;;;5022121;28;20061;-72
2022/08/12 07:52:58;;;;;;;9.00;8.20;;;;;;;;;;5022101;28;20068;-72
2022/08/12 07:55:24;;;;;;;10.40;9.13;;;;;;;;;;5022070;28;20448;-75
2022/08/12 07:57:56;;;;;;;9.32;8.52;;;;;;;;;;5022211;28;20127;-73
2022/08/12 08:00:22;;;;;;;9.52;8.65;;;;;;;;;;5023351;28;20456;-73
2022/08/12 08:02:48;;;;;;;9.40;8.60;;;;;;;;;;5022359;28;20009;-72
2022/08/12 08:05:15;;;;;;;8.98;8.18;;;;;;;;;;5021627;28;20451;-73
2022/08/12 08:07:41;;;;;;;9.25;8.35;;;;;;;;;;5022451;28;20083;-75
2022/08/12 08:10:09;;;;;;;8.10;7.40;;;;;;;;;;5021134;28;20041;-74
2022/08/12 08:12:53;;;;;;;8.43;7.67;;;;;;;;;;5020916;28;20029;-73
2022/08/12 08:15:20;;;;;;;8.30;7.60;;;;;;;;;;5021648;28;20033;-74
2022/08/12 08:17:56;;;;;;;9.13;7.72;;;;;;;;;;5023145;28;20033;-73
2022/08/12 08:20:27;;;;;;;8.43;7.32;;;;;;;;;;5022168;28;20033;-72
2022/08/12 08:22:52;;;;;;;10.23;8.00;;;;;;;;;;5021712;28;20025;-73
2022/08/12 08:25:19;;;;;;;7.60;6.95;;;;;;;;;;5020776;28;20035;-73
2022/08/12 08:27:45;;;;;;;7.22;6.63;;;;;;;;;;5025225;28;20174;-73
2022/08/12 08:30:15;;;;;;;8.18;6.95;;;;;;;;;;5029076;28;20025;-77
2022/08/12 08:32:40;;;;;;;7.65;6.95;;;;;;;;;;5025490;28;20021;-74
2022/08/12 08:35:09;;;;;;;6.70;6.10;;;;;;;;;;5024720;28;20078;-77
2022/08/12 08:37:35;;;;;;;7.05;6.45;;;;;;;;;;5025950;28;20112;-73
2022/08/12 08:42:35;;;;;;;11.15;7.50;;;;;;;;;;5024272;28;20575;-74
2022/08/12 08:42:45;;;;;;;7.10;6.55;;;;;;;;;;5023340;28;20073;-74
2022/08/12 08:45:14;;;;;;;7.13;6.40;;;;;;;;;;5025139;28;20076;-73
2022/08/12 08:47:40;;;;;;;;;;;;;;;;;;5026289;28;20032;-74
2022/08/12 08:50:08;;;;;;;7.45;6.85;;;;;;;;;;5025992;28;20012;-76
2022/08/12 08:52:33;;;;;;;6.55;5.95;;;;;;;;;;5025693;28;20105;-73
2022/08/12 08:54:58;;;;;;;6.05;5.55;;;;;;;;;;5025001;28;20100;-74
2022/08/12 08:57:24;;;;;;;6.53;5.97;;;;;;;;;;5023404;28;20049;-72
2022/08/12 08:59:49;;;;;;;5.82;5.32;;;;;;;;;;5025785;28;20036;-76
2022/08/12 09:02:15;;;;;;;5.93;5.40;;;;;;;;;;5026190;28;20041;-75
2022/08/12 09:04:40;;;;;;;6.57;5.70;;;;;;;;;;5023907;28;20021;-73
2022/08/12 09:07:05;;;;;;;7.15;6.30;;;;;;;;;;5025957;28;20028;-72
2022/08/12 09:09:31;;;;;;;6.25;5.28;;;;;;;;;;5024157;28;20067;-74
2022/08/12 09:14:42;;;;;;;6.00;5.50;;;;;;;;;;5024571;28;20036;-72
2022/08/12 09:17:07;;;;;;;7.00;6.07;;;;;;;;;;5024272;28;20035;-74
2022/08/12 09:19:33;;;;;;;5.82;5.22;;;;;;;;;;5026917;28;20029;-74
2022/08/12 09:21:59;;;;;;;5.32;4.72;;;;;;;;;;5023931;28;20456;-73
2022/08/12 09:24:24;;;;;;;5.38;4.95;;;;;;;;;;5027313;28;20090;-73
2022/08/12 09:26:50;;;;;;;5.13;4.72;;;;;;;;;;5024886;28;20104;-73
2022/08/12 09:29:19;;;;;;;6.90;4.95;;;;;;;;;;5025885;28;20096;-73
2022/08/12 09:31:45;;;;;;;;;;;;;;;;;;5024449;28;20045;-75
2022/08/12 09:34:10;;;;;;;5.72;5.05;;;;;;;;;;5025311;28;19924;-73
2022/08/12 09:36:37;;;;;;;5.38;4.82;;;;;;;;;;5024638;28;20034;-73
2022/08/12 09:39:03;;;;;;;5.75;4.68;;;;;;;;;;5023002;28;20078;-76
2022/08/12 09:41:36;;;;;;;5.28;4.75;;;;;;;;;;5024329;28;20135;-75
2022/08/12 09:46:45;;;;;;;8.32;4.68;;;;;;;;;;5024922;28;20384;-74
2022/08/12 09:49:10;;;;;;;4.85;4.45;;;;;;;;;;5023565;28;20025;-73
2022/08/12 09:51:36;;;;;;;4.60;4.20;;;;;;;;;;5023074;28;20433;-73
2022/08/12 09:54:01;;;;;;;4.93;4.47;;;;;;;;;;5025063;28;20480;-73
2022/08/12 09:56:30;;;;;;;4.38;4.05;;;;;;;;;;5023539;28;20030;-74
2022/08/12 09:58:56;;;;;;;4.95;4.55;;;;;;;;;;5024942;28;20200;-74
2022/08/12 10:01:22;;;;;;;3.83;3.53;;;;;;;;;;5024799;28;20488;-75
2022/08/12 10:03:48;;;;;;;4.07;3.78;;;;;;;;;;5006020;28;20468;-74
2022/08/12 10:06:14;;;;;;;4.60;3.97;;;;;;;;;;5024998;28;20037;-72
2022/08/12 10:08:39;;;;;;;4.47;4.07;;;;;;;;;;5024033;28;20037;-73
2022/08/12 10:13:51;;;;;;;4.35;3.78;;;;;;;;;;5024367;28;20091;-73
2022/08/12 10:16:21;;;;;;;4.13;3.13;;;;;;;;;;5023843;28;20030;-74
2022/08/12 10:18:46;;;;;;;3.63;3.33;;;;;;;;;;5024401;28;20038;-75
2022/08/12 10:21:12;;;;;;;4.30;3.60;;;;;;;;;;5025900;28;20040;-74
2022/08/12 10:23:39;;;;;;;4.43;3.45;;;;;;;;;;5022707;28;20018;-74
2022/08/12 10:31:32;;;;;;;3.40;3.10;;;;;;;;;;5024965;28;20047;-75
2022/08/12 10:33:57;;;;;;;4.40;4.03;;;;;;;;;;5023879;28;20115;-74
2022/08/12 10:36:23;;;;;;;3.30;3.10;;;;;;;;;;5024367;28;20068;-74
2022/08/12 10:38:49;;;;;;;3.28;3.08;;;;;;;;;;5023369;28;20033;-74
2022/08/12 10:44:01;;;;;;;6.63;2.97;;;;;;;;;;5022659;28;20124;-73
2022/08/12 10:46:26;;;;;;;3.50;3.30;;;;;;;;;;5022489;28;20033;-74
2022/08/12 10:48:52;;;;;;;4.47;3.40;;;;;;;;;;5024863;28;20341;-74
2022/08/12 10:51:18;;;;;;;3.38;3.08;;;;;;;;;;5022059;28;20334;-74
2022/08/12 10:53:47;;;;;;;4.47;3.25;;;;;;;;;;5022741;28;20448;-73
2022/08/12 10:56:15;;;;;;;5.60;3.83;;;;;;;;;;5023149;28;20029;-73
2022/08/12 10:58:41;;;;;;;3.95;3.45;;;;;;;;;;5022049;28;20453;-74
2022/08/12 11:01:09;;;;;;;5.13;3.00;;;;;;;;;;5023599;28;20088;-73
2022/08/12 11:03:37;;;;;;;3.47;2.78;;;;;;;;;;5024547;28;20029;-74
2022/08/12 11:06:04;;;;;;;3.05;2.85;;;;;;;;;;5021481;28;20344;-75
2022/08/12 11:08:29;;;;;;;3.30;3.00;;;;;;;;;;5022384;28;20029;-73
2022/08/12 11:10:55;;;;;;;3.33;3.03;;;;;;;;;;5020201;28;20037;-73
2022/08/12 11:13:20;;;;;;;3.88;3.50;;;;;;;;;;5024048;28;20104;-73
2022/08/12 11:15:45;;;;;;;3.83;3.30;;;;;;;;;;5021826;28;20029;-73
2022/08/12 11:18:11;;;;;;;3.83;3.42;;;;;;;;;;5023337;28;20025;-74
2022/08/12 11:20:37;;;;;;;3.67;3.38;;;;;;;;;;5021642;28;20057;-77
2022/08/12 11:23:02;;;;;;;5.45;4.85;;;;;;;;;;5021883;28;20056;-76
2022/08/12 11:25:27;;;;;;;5.20;3.25;;;;;;;;;;5022049;28;20335;-75
2022/08/12 11:27:53;;;;;;;3.60;3.35;;;;;;;;;;5023116;28;20029;-75
2022/08/12 11:30:19;;;;;;;2.97;2.40;;;;;;;;;;5023279;28;20029;-74
2022/08/12 11:32:44;;;;;;;3.13;2.92;;;;;;;;;;5021736;28;20036;-73
2022/08/12 11:35:09;;;;;;;3.00;2.72;;;;;;;;;;5022567;28;20056;-75
2022/08/12 11:37:37;;;;;;;3.00;2.80;;;;;;;;;;5022586;28;20428;-74
2022/08/12 11:40:03;;;;;;;2.78;2.58;;;;;;;;;;5024229;28;20124;-73
2022/08/12 11:42:28;;;;;;;2.85;2.53;;;;;;;;;;5022973;28;20447;-73
2022/08/12 11:44:53;;;;;;;4.78;2.97;;;;;;;;;;5022795;28;20107;-73
2022/08/12 11:47:19;;;;;;;3.00;2.80;;;;;;;;;;5021072;28;20033;-73
2022/08/12 11:49:44;;;;;;;3.20;3.00;;;;;;;;;;5022855;28;20033;-74
2022/08/12 11:52:09;;;;;;;2.97;2.78;;;;;;;;;;5022437;28;20017;-74
2022/08/12 11:54:34;;;;;;;3.28;2.97;;;;;;;;;;5021947;28;20049;-76
2022/08/12 11:57:00;;;;;;;3.20;3.00;;;;;;;;;;5022900;28;20057;-74
2022/08/12 11:59:26;;;;;;;3.22;3.00;;;;;;;;;;5023539;28;20052;-76
2022/08/12 12:01:51;;;;;;;3.95;2.67;;;;;;;;;;5023756;28;20357;-75
2022/08/12 12:04:17;;;;;;;3.08;2.50;;;;;;;;;;5020788;28;20025;-75
2022/08/12 12:06:42;;;;;;;2.88;2.60;;;;;;;;;;5023194;28;20030;-73
2022/08/12 12:09:07;;;;;;;3.13;2.92;;;;;;;;;;5021718;28;20033;-75
2022/08/12 12:11:33;;;;;;;2.97;2.78;;;;;;;;;;5021367;28;20022;-74
2022/08/12 12:13:58;;;;;;;4.85;2.70;;;;;;;;;;5021502;28;20022;-74
2022/08/12 12:16:23;;;;;;;2.75;2.55;;;;;;;;;;5020024;28;20369;-74
2022/08/12 12:18:49;;;;;;;4.03;2.40;;;;;;;;;;5022078;28;20326;-76
2022/08/12 12:21:15;;;;;;;3.15;2.85;;;;;;;;;;5021591;28;20032;-76
2022/08/12 12:23:40;;;;;;;4.25;2.67;;;;;;;;;;5020940;28;20025;-74
2022/08/12 12:26:06;;;;;;;2.95;2.67;;;;;;;;;;5021398;28;20022;-73
2022/08/12 12:28:32;;;;;;;2.70;2.50;;;;;;;;;;5022216;28;20029;-72
2022/08/12 12:30:58;;;;;;;3.28;3.03;;;;;;;;;;5021631;28;20061;-74
2022/08/12 12:33:23;;;;;;;3.45;2.70;;;;;;;;;;5021590;28;20464;-73
2022/08/12 12:35:48;;;;;;;2.75;2.55;;;;;;;;;;5021187;28;20364;-74
2022/08/12 12:38:14;;;;;;;3.03;2.80;;;;;;;;;;5020394;28;20091;-73
2022/08/12 12:40:42;;;;;;;2.75;2.55;;;;;;;;;;5020891;28;20133;-75
2022/08/12 12:43:07;;;;;;;4.60;2.70;;;;;;;;;;5022174;28;20025;-74
2022/08/12 12:45:34;;;;;;;2.47;2.25;;;;;;;;;;5020443;28;20088;-73
2022/08/12 12:48:03;;;;;;;2.63;2.42;;;;;;;;;;5021348;28;20047;-73
2022/08/12 12:50:30;;;;;;;2.85;2.65;;;;;;;;;;5022054;28;20040;-74
2022/08/12 12:52:55;;;;;;;3.53;3.22;;;;;;;;;;5020581;28;20063;-75
2022/08/12 12:55:22;;;;;;;2.83;2.63;;;;;;;;;;5021869;28;20425;-75
2022/08/12 12:57:47;;;;;;;2.90;2.70;;;;;;;;;;5020966;28;20033;-72
2022/08/12 13:00:14;;;;;;;3.92;2.88;;;;;;;;;;5022562;28;20373;-73
2022/08/12 13:02:44;;;;;;;3.22;2.92;;;;;;;;;;5022070;28;20018;-75
2022/08/12 13:05:10;;;;;;;2.70;2.50;;;;;;;;;;5023102;28;20064;-74
2022/08/12 13:07:39;;;;;;;5.63;2.42;;;;;;;;;;5020939;28;20057;-72
2022/08/12 13:10:05;;;;;;;2.88;2.67;;;;;;;;;;5020184;28;20080;-73
2022/08/12 13:12:32;;;;;;;2.92;2.72;;;;;;;;;;5020094;28;20759;-75
2022/08/12 13:14:58;;;;;;;2.63;2.42;;;;;;;;;;5024580;28;20043;-74
2022/08/12 13:17:23;;;;;;;2.40;2.20;;;;;;;;;;5024727;28;20029;-74
2022/08/12 13:19:48;;;;;;;4.00;2.97;;;;;;;;;;5024225;28;20095;-74
2022/08/12 13:22:19;;;;;;;3.03;2.70;;;;;;;;;;5024603;28;20017;-74
2022/08/12 13:24:45;;;;;;;4.50;2.78;;;;;;;;;;5024768;28;20045;-74
2022/08/12 13:27:10;;;;;;;4.25;2.65;;;;;;;;;;5025557;28;20029;-76
2022/08/12 13:29:37;;;;;;;2.53;2.33;;;;;;;;;;5024866;28;20029;-73
2022/08/12 13:32:04;;;;;;;3.00;2.80;;;;;;;;;;5023748;28;20091;-74
2022/08/12 13:34:31;;;;;;;2.55;2.28;;;;;;;;;;5024289;28;20556;-73
2022/08/12 13:36:56;;;;;;;2.78;2.58;;;;;;;;;;5025085;28;20391;-74
2022/08/12 13:39:22;;;;;;;2.40;2.15;;;;;;;;;;5023058;28;20038;-74
2022/08/12 13:41:47;;;;;;;2.65;2.45;;;;;;;;;;5024527;28;20057;-74
2022/08/12 13:44:13;;;;;;;2.80;2.60;;;;;;;;;;5007664;28;20037;-76
2022/08/12 13:46:40;;;;;;;3.17;2.65;;;;;;;;;;5024781;28;20029;-75
2022/08/12 13:49:07;;;;;;;2.40;2.20;;;;;;;;;;5023862;28;20036;-74
2022/08/12 13:51:34;;;;;;;2.70;2.50;;;;;;;;;;5023475;28;20084;-74
2022/08/12 13:54:00;;;;;;;4.45;2.25;;;;;;;;;;5024596;28;20025;-75
2022/08/12 13:56:26;;;;;;;2.60;2.40;;;;;;;;;;5023326;28;20027;-73
2022/08/12 13:58:51;;;;;;;2.50;2.35;;;;;;;;;;5024230;28;20086;-74
2022/08/12 14:01:19;;;;;;;4.25;2.45;;;;;;;;;;5023764;28;20437;-74
2022/08/12 14:03:45;;;;;;;2.50;2.30;;;;;;;;;;5023265;28;20043;-74
2022/08/12 14:06:13;;;;;;;2.38;2.28;;;;;;;;;;5023661;28;20029;-73
2022/08/12 14:08:39;;;;;;;2.58;2.38;;;;;;;;;;5023169;28;20080;-74
2022/08/12 14:11:04;;;;;;;2.35;2.25;;;;;;;;;;5024873;28;20051;-73
2022/08/12 14:13:31;;;;;;;2.30;2.20;;;;;;;;;;5024341;28;21138;-74
2022/08/12 14:16:01;;;;;;;2.67;2.47;;;;;;;;;;5023822;28;20117;-72
2022/08/12 14:18:37;;;;;;;2.10;2.00;;;;;;;;;;5022896;28;20025;-73
2022/08/12 14:21:08;;;;;;;2.00;1.90;;;;;;;;;;5022029;28;20471;-73
2022/08/12 14:23:36;;;;;;;2.50;2.30;;;;;;;;;;5023589;28;20033;-72
2022/08/12 14:26:04;;;;;;;2.40;2.20;;;;;;;;;;5024060;28;20029;-76
2022/08/12 14:28:31;;;;;;;2.53;2.13;;;;;;;;;;5024020;28;20030;-74
2022/08/12 14:31:06;;;;;;;2.47;2.28;;;;;;;;;;5023456;28;20112;-77
2022/08/12 14:33:33;;;;;;;2.38;2.17;;;;;;;;;;5022385;28;20034;-76
2022/08/12 14:35:59;;;;;;;2.70;2.50;;;;;;;;;;5023182;28;20033;-77
2022/08/12 14:38:29;;;;;;;2.53;1.98;;;;;;;;;;5022237;28;20452;-75
2022/08/12 14:40:58;;;;;;;2.58;2.10;;;;;;;;;;5005409;28;20085;-73
2022/08/12 14:43:26;;;;;;;2.50;2.30;;;;;;;;;;5022704;28;20033;-72
2022/08/12 14:45:52;;;;;;;2.25;2.05;;;;;;;;;;5022684;28;20045;-75
2022/08/12 14:48:18;;;;;;;5.10;2.10;;;;;;;;;;5023142;28;20033;-74
2022/08/12 14:50:44;;;;;;;2.03;1.92;;;;;;;;;;5021809;28;20460;-72
2022/08/12 14:53:13;;;;;;;2.00;1.90;;;;;;;;;;5022743;28;20520;-74
2022/08/12 14:55:40;;;;;;;2.55;2.35;;;;;;;;;;5023096;28;21103;-73
2022/08/12 14:58:06;;;;;;;3.33;2.20;;;;;;;;;;5021930;28;20033;-74
2022/08/12 15:03:15;;;;;;;3.38;2.13;;;;;;;;;;5022116;28;20122;-73
2022/08/12 15:05:42;;;;;;;2.78;2.58;;;;;;;;;;5021687;28;20096;-76
2022/08/12 15:08:12;;;;;;;3.13;2.30;;;;;;;;;;5020220;28;20040;-73
2022/08/12 15:10:42;;;;;;;2.47;2.17;;;;;;;;;;5022867;28;20040;-74
2022/08/12 15:13:08;;;;;;;2.92;2.58;;;;;;;;;;5020114;28;20029;-74
2022/08/12 15:15:37;;;;;;;2.50;2.30;;;;;;;;;;5020867;28;20326;-74
2022/08/12 15:18:02;;;;;;;3.50;2.38;;;;;;;;;;5023040;28;20040;-72
2022/08/12 15:20:28;;;;;;;2.53;2.33;;;;;;;;;;5023656;28;21158;-75
2022/08/12 15:22:55;;;;;;;3.20;2.30;;;;;;;;;;5022334;28;20448;-73
2022/08/12 15:25:20;;;;;;;2.47;2.35;;;;;;;;;;5022949;28;20029;-74
2022/08/12 15:27:48;;;;;;;2.45;2.25;;;;;;;;;;5022313;28;20029;-73
2022/08/12 15:30:15;;;;;;;3.45;1.88;;;;;;;;;;5023661;28;20029;-73
2022/08/12 15:32:40;;;;;;;3.10;2.70;;;;;;;;;;5021317;28;20044;-74
2022/08/12 15:35:06;;;;;;;5.20;2.65;;;;;;;;;;5021550;28;20364;-77
2022/08/12 15:37:31;;;;;;;2.25;2.10;;;;;;;;;;5020800;28;20018;-75
2022/08/12 15:39:56;;;;;;;2.53;2.33;;;;;;;;;;5021735;28;20099;-76
2022/08/12 15:42:23;;;;;;;2.40;2.20;;;;;;;;;;5021430;28;20453;-75
2022/08/12 15:44:48;;;;;;;5.30;2.50;;;;;;;;;;5022011;28;20028;-73
2022/08/12 15:47:15;;;;;;;2.83;2.40;;;;;;;;;;5024291;28;20029;-74
2022/08/12 15:49:41;;;;;;;2.63;2.10;;;;;;;;;;5021047;28;20036;-77
2022/08/12 15:52:06;;;;;;;2.00;1.90;;;;;;;;;;5020201;28;20029;-74
2022/08/12 15:54:31;;;;;;;2.70;2.50;;;;;;;;;;5022627;28;20671;-77
2022/08/12 15:56:57;;;;;;;2.28;2.13;;;;;;;;;;5020302;28;20111;-73
2022/08/12 15:59:22;;;;;;;2.55;2.38;;;;;;;;;;5022706;28;20041;-74
2022/08/12 16:01:49;;;;;;;2.30;2.10;;;;;;;;;;5023126;28;20022;-73
2022/08/12 16:04:14;;;;;;;2.75;2.42;;;;;;;;;;5022119;28;20140;-73
2022/08/12 16:06:40;;;;;;;2.38;2.22;;;;;;;;;;5022831;28;20425;-73
2022/08/12 16:09:05;;;;;;;4.18;2.20;;;;;;;;;;5020292;28;20064;-73
2022/08/12 16:11:38;;;;;;;3.25;2.50;;;;;;;;;;5023943;28;20030;-73
2022/08/12 16:14:03;;;;;;;2.50;2.30;;;;;;;;;;5022899;28;20642;-73
2022/08/12 16:16:31;;;;;;;2.50;2.30;;;;;;;;;;5003793;28;20188;-74
2022/08/12 16:18:56;;;;;;;4.15;2.28;;;;;;;;;;5021391;28;20041;-73
2022/08/12 16:21:23;;;;;;;2.33;2.13;;;;;;;;;;5004043;28;20025;-76
2022/08/12 16:23:48;;;;;;;4.13;3.72;;;;;;;;;;5022733;28;20098;-74